sensor_id;sensor_type;location;lat;lon;timestamp;P1;durP1;ratioP1;P2;durP2;ratioP2
68074;SDS011;54864;52.002;5.468;2023-07-16T00:00:57;10.07;;;2.80;;
68074;SDS011;54864;52.002;5.468;2023-07-16T00:01:58;8.38;;;2.97;;
68074;SDS011;54864;52.002;5.468;2023-07-16T00:03:00;10.73;;;2.80;;
68074;SDS011;54864;52.002;5.468;2023-07-16T00:04:02;11.77;;;3.45;;
68074;SDS011;54864;52.002;5.468;2023-07-16T00:05:04;12.35;;;3.00;;
68074;SDS011;54864;52.002;5.468;2023-07-16T00:06:06;9.15;;;3.10;;
68074;SDS011;54864;52.002;5.468;2023-07-16T00:07:07;10.80;;;3.20;;
68074;SDS011;54864;52.002;5.468;2023-07-16T00:08:09;9.50;;;3.08;;
68074;SDS011;54864;52.002;5.468;2023-07-16T00:09:10;8.05;;;2.90;;
68074;SDS011;54864;52.002;5.468;2023-07-16T00:10:11;12.57;;;3.10;;
68074;SDS011;54864;52.002;5.468;2023-07-16T00:11:13;8.65;;;2.70;;
68074;SDS011;54864;52.002;5.468;2023-07-16T00:12:14;12.23;;;3.58;;
68074;SDS011;54864;52.002;5.468;2023-07-16T00:13:15;9.35;;;3.25;;
68074;SDS011;54864;52.002;5.468;2023-07-16T00:14:17;6.45;;;2.80;;
68074;SDS011;54864;52.002;5.468;2023-07-16T00:15:19;8.98;;;3.63;;
68074;SDS011;54864;52.002;5.468;2023-07-16T00:16:19;10.63;;;3.80;;
68074;SDS011;54864;52.002;5.468;2023-07-16T00:17:21;7.85;;;2.75;;
68074;SDS011;54864;52.002;5.468;2023-07-16T00:18:22;8.70;;;2.87;;
68074;SDS011;54864;52.002;5.468;2023-07-16T00:19:27;8.13;;;2.85;;
68074;SDS011;54864;52.002;5.468;2023-07-16T00:20:28;10.13;;;2.78;;
68074;SDS011;54864;52.002;5.468;2023-07-16T00:21:30;9.15;;;3.08;;
68074;SDS011;54864;52.002;5.468;2023-07-16T00:22:30;11.93;;;3.42;;
68074;SDS011;54864;52.002;5.468;2023-07-16T00:23:31;7.90;;;2.90;;
68074;SDS011;54864;52.002;5.468;2023-07-16T00:24:33;10.63;;;3.15;;
68074;SDS011;54864;52.002;5.468;2023-07-16T00:25:34;11.88;;;2.95;;
68074;SDS011;54864;52.002;5.468;2023-07-16T00:26:36;9.93;;;2.90;;
68074;SDS011;54864;52.002;5.468;2023-07-16T00:27:39;7.50;;;3.05;;
68074;SDS011;54864;52.002;5.468;2023-07-16T00:28:41;12.52;;;3.30;;
68074;SDS011;54864;52.002;5.468;2023-07-16T00:29:42;9.25;;;3.15;;
68074;SDS011;54864;52.002;5.468;2023-07-16T00:30:43;7.20;;;3.13;;
68074;SDS011;54864;52.002;5.468;2023-07-16T00:31:44;9.63;;;3.30;;
68074;SDS011;54864;52.002;5.468;2023-07-16T00:32:49;11.75;;;3.67;;
68074;SDS011;54864;52.002;5.468;2023-07-16T00:33:49;11.55;;;3.50;;
68074;SDS011;54864;52.002;5.468;2023-07-16T00:34:52;7.63;;;2.95;;
68074;SDS011;54864;52.002;5.468;2023-07-16T00:35:53;11.88;;;3.90;;
68074;SDS011;54864;52.002;5.468;2023-07-16T00:36:55;9.57;;;3.30;;
68074;SDS011;54864;52.002;5.468;2023-07-16T00:38:04;10.02;;;3.08;;
68074;SDS011;54864;52.002;5.468;2023-07-16T00:39:05;10.52;;;3.15;;
68074;SDS011;54864;52.002;5.468;2023-07-16T00:40:08;9.05;;;3.17;;
68074;SDS011;54864;52.002;5.468;2023-07-16T00:41:13;9.30;;;2.90;;
68074;SDS011;54864;52.002;5.468;2023-07-16T00:42:14;9.60;;;3.20;;
68074;SDS011;54864;52.002;5.468;2023-07-16T00:43:16;12.20;;;2.95;;
68074;SDS011;54864;52.002;5.468;2023-07-16T00:44:17;12.10;;;3.15;;
68074;SDS011;54864;52.002;5.468;2023-07-16T00:45:19;13.40;;;3.45;;
68074;SDS011;54864;52.002;5.468;2023-07-16T00:46:19;9.07;;;3.00;;
68074;SDS011;54864;52.002;5.468;2023-07-16T00:47:21;10.32;;;3.25;;
68074;SDS011;54864;52.002;5.468;2023-07-16T00:48:26;8.57;;;2.95;;
68074;SDS011;54864;52.002;5.468;2023-07-16T00:49:28;6.93;;;3.25;;
68074;SDS011;54864;52.002;5.468;2023-07-16T00:50:30;11.88;;;3.15;;
68074;SDS011;54864;52.002;5.468;2023-07-16T00:51:34;7.13;;;3.17;;
68074;SDS011;54864;52.002;5.468;2023-07-16T00:52:35;6.50;;;2.72;;
68074;SDS011;54864;52.002;5.468;2023-07-16T00:53:36;11.02;;;3.03;;
68074;SDS011;54864;52.002;5.468;2023-07-16T00:54:38;10.30;;;3.40;;
68074;SDS011;54864;52.002;5.468;2023-07-16T00:55:40;6.57;;;3.10;;
68074;SDS011;54864;52.002;5.468;2023-07-16T00:56:41;10.10;;;3.58;;
68074;SDS011;54864;52.002;5.468;2023-07-16T00:57:45;12.07;;;3.50;;
68074;SDS011;54864;52.002;5.468;2023-07-16T00:58:47;6.68;;;3.25;;
68074;SDS011;54864;52.002;5.468;2023-07-16T00:59:49;10.60;;;3.45;;
68074;SDS011;54864;52.002;5.468;2023-07-16T01:00:50;9.67;;;3.40;;
68074;SDS011;54864;52.002;5.468;2023-07-16T01:01:52;8.73;;;3.25;;
68074;SDS011;54864;52.002;5.468;2023-07-16T01:02:52;9.90;;;3.20;;
68074;SDS011;54864;52.002;5.468;2023-07-16T01:03:54;8.18;;;3.20;;
68074;SDS011;54864;52.002;5.468;2023-07-16T01:04:55;9.63;;;3.45;;
68074;SDS011;54864;52.002;5.468;2023-07-16T01:06:00;8.95;;;3.17;;
68074;SDS011;54864;52.002;5.468;2023-07-16T01:07:06;7.53;;;3.30;;
68074;SDS011;54864;52.002;5.468;2023-07-16T01:08:12;7.45;;;3.10;;
68074;SDS011;54864;52.002;5.468;2023-07-16T01:09:18;11.15;;;3.90;;
68074;SDS011;54864;52.002;5.468;2023-07-16T01:10:21;10.13;;;3.65;;
68074;SDS011;54864;52.002;5.468;2023-07-16T01:11:22;14.45;;;4.50;;
68074;SDS011;54864;52.002;5.468;2023-07-16T01:12:25;11.52;;;3.70;;
68074;SDS011;54864;52.002;5.468;2023-07-16T01:13:28;13.25;;;3.78;;
68074;SDS011;54864;52.002;5.468;2023-07-16T01:14:30;8.85;;;3.08;;
68074;SDS011;54864;52.002;5.468;2023-07-16T01:15:31;14.48;;;4.18;;
68074;SDS011;54864;52.002;5.468;2023-07-16T01:16:32;11.10;;;4.18;;
68074;SDS011;54864;52.002;5.468;2023-07-16T01:17:34;10.57;;;3.40;;
68074;SDS011;54864;52.002;5.468;2023-07-16T01:18:34;10.73;;;3.53;;
68074;SDS011;54864;52.002;5.468;2023-07-16T01:19:35;9.27;;;3.53;;
68074;SDS011;54864;52.002;5.468;2023-07-16T01:20:37;12.57;;;3.45;;
68074;SDS011;54864;52.002;5.468;2023-07-16T01:21:42;18.03;;;3.60;;
68074;SDS011;54864;52.002;5.468;2023-07-16T01:22:58;9.23;;;3.33;;
68074;SDS011;54864;52.002;5.468;2023-07-16T01:25:46;9.80;;;3.70;;
68074;SDS011;54864;52.002;5.468;2023-07-16T01:27:01;10.20;;;3.22;;
68074;SDS011;54864;52.002;5.468;2023-07-16T01:28:22;12.00;;;3.70;;
68074;SDS011;54864;52.002;5.468;2023-07-16T01:29:37;10.68;;;3.50;;
68074;SDS011;54864;52.002;5.468;2023-07-16T01:30:44;7.45;;;2.97;;
68074;SDS011;54864;52.002;5.468;2023-07-16T01:31:46;7.05;;;3.17;;
68074;SDS011;54864;52.002;5.468;2023-07-16T01:32:50;8.20;;;3.63;;
68074;SDS011;54864;52.002;5.468;2023-07-16T01:33:55;10.60;;;3.50;;
68074;SDS011;54864;52.002;5.468;2023-07-16T01:34:57;8.65;;;3.58;;
68074;SDS011;54864;52.002;5.468;2023-07-16T01:36:02;9.20;;;3.47;;
68074;SDS011;54864;52.002;5.468;2023-07-16T01:37:04;8.75;;;3.30;;
68074;SDS011;54864;52.002;5.468;2023-07-16T01:38:05;8.20;;;3.53;;
68074;SDS011;54864;52.002;5.468;2023-07-16T01:39:07;10.07;;;3.13;;
68074;SDS011;54864;52.002;5.468;2023-07-16T01:40:08;9.88;;;3.38;;
68074;SDS011;54864;52.002;5.468;2023-07-16T01:41:11;9.40;;;3.50;;
68074;SDS011;54864;52.002;5.468;2023-07-16T01:42:12;12.02;;;3.95;;
68074;SDS011;54864;52.002;5.468;2023-07-16T01:43:21;11.35;;;4.13;;
68074;SDS011;54864;52.002;5.468;2023-07-16T01:44:22;9.98;;;3.35;;
68074;SDS011;54864;52.002;5.468;2023-07-16T01:45:25;11.15;;;3.65;;
68074;SDS011;54864;52.002;5.468;2023-07-16T01:46:26;10.52;;;3.70;;
68074;SDS011;54864;52.002;5.468;2023-07-16T01:47:30;11.52;;;4.13;;
68074;SDS011;54864;52.002;5.468;2023-07-16T01:48:39;9.45;;;3.80;;
68074;SDS011;54864;52.002;5.468;2023-07-16T01:49:41;11.45;;;3.97;;
68074;SDS011;54864;52.002;5.468;2023-07-16T01:50:42;13.10;;;4.43;;
68074;SDS011;54864;52.002;5.468;2023-07-16T01:51:43;8.63;;;3.60;;
68074;SDS011;54864;52.002;5.468;2023-07-16T01:52:45;14.73;;;3.78;;
68074;SDS011;54864;52.002;5.468;2023-07-16T01:53:45;10.73;;;3.88;;
68074;SDS011;54864;52.002;5.468;2023-07-16T01:54:47;9.82;;;4.00;;
68074;SDS011;54864;52.002;5.468;2023-07-16T01:55:48;10.20;;;4.07;;
68074;SDS011;54864;52.002;5.468;2023-07-16T01:56:50;12.77;;;3.80;;
68074;SDS011;54864;52.002;5.468;2023-07-16T01:57:50;8.65;;;3.50;;
68074;SDS011;54864;52.002;5.468;2023-07-16T01:58:52;9.98;;;4.70;;
68074;SDS011;54864;52.002;5.468;2023-07-16T01:59:53;14.00;;;4.30;;
68074;SDS011;54864;52.002;5.468;2023-07-16T02:00:56;13.90;;;4.60;;
68074;SDS011;54864;52.002;5.468;2023-07-16T02:01:57;11.07;;;3.70;;
68074;SDS011;54864;52.002;5.468;2023-07-16T02:02:59;12.35;;;4.40;;
68074;SDS011;54864;52.002;5.468;2023-07-16T02:03:59;9.10;;;3.90;;
68074;SDS011;54864;52.002;5.468;2023-07-16T02:05:01;12.75;;;4.15;;
68074;SDS011;54864;52.002;5.468;2023-07-16T02:06:02;10.82;;;3.72;;
68074;SDS011;54864;52.002;5.468;2023-07-16T02:07:04;11.23;;;4.18;;
68074;SDS011;54864;52.002;5.468;2023-07-16T02:08:05;11.48;;;4.03;;
68074;SDS011;54864;52.002;5.468;2023-07-16T02:09:07;12.52;;;4.18;;
68074;SDS011;54864;52.002;5.468;2023-07-16T02:10:08;11.40;;;4.15;;
68074;SDS011;54864;52.002;5.468;2023-07-16T02:11:10;9.23;;;3.83;;
68074;SDS011;54864;52.002;5.468;2023-07-16T02:12:11;11.57;;;3.88;;
68074;SDS011;54864;52.002;5.468;2023-07-16T02:13:13;9.32;;;3.97;;
68074;SDS011;54864;52.002;5.468;2023-07-16T02:14:16;14.02;;;4.70;;
68074;SDS011;54864;52.002;5.468;2023-07-16T02:15:18;11.98;;;4.95;;
68074;SDS011;54864;52.002;5.468;2023-07-16T02:16:20;10.80;;;3.65;;
68074;SDS011;54864;52.002;5.468;2023-07-16T02:17:23;9.27;;;3.88;;
68074;SDS011;54864;52.002;5.468;2023-07-16T02:18:23;13.73;;;4.30;;
68074;SDS011;54864;52.002;5.468;2023-07-16T02:19:25;12.35;;;4.30;;
68074;SDS011;54864;52.002;5.468;2023-07-16T02:20:29;10.32;;;4.10;;
68074;SDS011;54864;52.002;5.468;2023-07-16T02:21:31;11.60;;;4.20;;
68074;SDS011;54864;52.002;5.468;2023-07-16T02:22:31;14.70;;;4.27;;
68074;SDS011;54864;52.002;5.468;2023-07-16T02:23:35;8.57;;;4.28;;
68074;SDS011;54864;52.002;5.468;2023-07-16T02:24:36;10.17;;;3.70;;
68074;SDS011;54864;52.002;5.468;2023-07-16T02:25:37;15.75;;;4.40;;
68074;SDS011;54864;52.002;5.468;2023-07-16T02:26:38;10.20;;;4.43;;
68074;SDS011;54864;52.002;5.468;2023-07-16T02:27:40;12.27;;;3.90;;
68074;SDS011;54864;52.002;5.468;2023-07-16T02:28:42;12.85;;;4.15;;
68074;SDS011;54864;52.002;5.468;2023-07-16T02:29:42;10.82;;;3.60;;
68074;SDS011;54864;52.002;5.468;2023-07-16T02:30:48;7.82;;;3.70;;
68074;SDS011;54864;52.002;5.468;2023-07-16T02:31:50;12.05;;;4.45;;
68074;SDS011;54864;52.002;5.468;2023-07-16T02:32:51;13.30;;;5.05;;
68074;SDS011;54864;52.002;5.468;2023-07-16T02:33:52;10.80;;;4.07;;
68074;SDS011;54864;52.002;5.468;2023-07-16T02:34:54;11.93;;;4.30;;
68074;SDS011;54864;52.002;5.468;2023-07-16T02:35:55;8.63;;;3.90;;
68074;SDS011;54864;52.002;5.468;2023-07-16T02:36:56;10.25;;;4.20;;
68074;SDS011;54864;52.002;5.468;2023-07-16T02:37:57;13.43;;;4.43;;
68074;SDS011;54864;52.002;5.468;2023-07-16T02:38:58;10.18;;;4.18;;
68074;SDS011;54864;52.002;5.468;2023-07-16T02:39:59;12.75;;;4.20;;
68074;SDS011;54864;52.002;5.468;2023-07-16T02:41:00;10.40;;;3.90;;
68074;SDS011;54864;52.002;5.468;2023-07-16T02:42:02;11.57;;;4.28;;
68074;SDS011;54864;52.002;5.468;2023-07-16T02:43:03;11.32;;;4.80;;
68074;SDS011;54864;52.002;5.468;2023-07-16T02:44:04;11.35;;;4.68;;
68074;SDS011;54864;52.002;5.468;2023-07-16T02:45:07;9.45;;;4.40;;
68074;SDS011;54864;52.002;5.468;2023-07-16T02:46:08;10.70;;;4.45;;
68074;SDS011;54864;52.002;5.468;2023-07-16T02:47:11;13.53;;;4.67;;
68074;SDS011;54864;52.002;5.468;2023-07-16T02:48:12;10.70;;;4.23;;
68074;SDS011;54864;52.002;5.468;2023-07-16T02:49:14;11.90;;;4.72;;
68074;SDS011;54864;52.002;5.468;2023-07-16T02:50:14;9.48;;;3.80;;
68074;SDS011;54864;52.002;5.468;2023-07-16T02:51:16;12.95;;;4.05;;
68074;SDS011;54864;52.002;5.468;2023-07-16T02:52:17;9.70;;;4.07;;
68074;SDS011;54864;52.002;5.468;2023-07-16T02:53:22;12.05;;;4.40;;
68074;SDS011;54864;52.002;5.468;2023-07-16T02:54:22;13.47;;;4.27;;
68074;SDS011;54864;52.002;5.468;2023-07-16T02:55:24;13.77;;;4.43;;
68074;SDS011;54864;52.002;5.468;2023-07-16T02:56:25;11.30;;;4.10;;
68074;SDS011;54864;52.002;5.468;2023-07-16T02:57:27;14.35;;;4.32;;
68074;SDS011;54864;52.002;5.468;2023-07-16T02:58:28;11.20;;;4.05;;
68074;SDS011;54864;52.002;5.468;2023-07-16T02:59:30;12.35;;;4.18;;
68074;SDS011;54864;52.002;5.468;2023-07-16T03:00:33;11.40;;;4.30;;
68074;SDS011;54864;52.002;5.468;2023-07-16T03:01:35;11.52;;;4.68;;
68074;SDS011;54864;52.002;5.468;2023-07-16T03:02:37;8.88;;;4.05;;
68074;SDS011;54864;52.002;5.468;2023-07-16T03:03:39;12.30;;;4.07;;
68074;SDS011;54864;52.002;5.468;2023-07-16T03:04:40;9.50;;;4.33;;
68074;SDS011;54864;52.002;5.468;2023-07-16T03:05:42;13.75;;;5.20;;
68074;SDS011;54864;52.002;5.468;2023-07-16T03:06:42;13.13;;;4.38;;
68074;SDS011;54864;52.002;5.468;2023-07-16T03:07:44;13.18;;;4.20;;
68074;SDS011;54864;52.002;5.468;2023-07-16T03:08:45;12.65;;;5.00;;
68074;SDS011;54864;52.002;5.468;2023-07-16T03:09:46;13.82;;;4.95;;
68074;SDS011;54864;52.002;5.468;2023-07-16T03:10:47;15.43;;;5.00;;
68074;SDS011;54864;52.002;5.468;2023-07-16T03:11:49;11.93;;;4.15;;
68074;SDS011;54864;52.002;5.468;2023-07-16T03:12:50;9.50;;;4.47;;
68074;SDS011;54864;52.002;5.468;2023-07-16T03:13:51;11.70;;;4.53;;
68074;SDS011;54864;52.002;5.468;2023-07-16T03:14:52;11.63;;;4.68;;
68074;SDS011;54864;52.002;5.468;2023-07-16T03:15:54;11.02;;;4.60;;
68074;SDS011;54864;52.002;5.468;2023-07-16T03:16:55;11.50;;;4.45;;
68074;SDS011;54864;52.002;5.468;2023-07-16T03:17:58;13.68;;;4.32;;
68074;SDS011;54864;52.002;5.468;2023-07-16T03:18:59;11.50;;;4.53;;
68074;SDS011;54864;52.002;5.468;2023-07-16T03:20:02;12.38;;;4.53;;
68074;SDS011;54864;52.002;5.468;2023-07-16T03:21:04;14.40;;;4.88;;
68074;SDS011;54864;52.002;5.468;2023-07-16T03:22:06;10.45;;;4.75;;
68074;SDS011;54864;52.002;5.468;2023-07-16T03:23:09;11.60;;;4.25;;
68074;SDS011;54864;52.002;5.468;2023-07-16T03:24:11;12.13;;;3.80;;
68074;SDS011;54864;52.002;5.468;2023-07-16T03:25:12;9.27;;;3.65;;
68074;SDS011;54864;52.002;5.468;2023-07-16T03:26:14;14.73;;;3.92;;
68074;SDS011;54864;52.002;5.468;2023-07-16T03:27:17;11.45;;;4.45;;
68074;SDS011;54864;52.002;5.468;2023-07-16T03:28:18;10.65;;;3.70;;
68074;SDS011;54864;52.002;5.468;2023-07-16T03:29:25;13.35;;;4.28;;
68074;SDS011;54864;52.002;5.468;2023-07-16T03:30:27;12.25;;;4.75;;
68074;SDS011;54864;52.002;5.468;2023-07-16T03:31:27;14.13;;;4.00;;
68074;SDS011;54864;52.002;5.468;2023-07-16T03:32:29;13.57;;;4.03;;
68074;SDS011;54864;52.002;5.468;2023-07-16T03:33:31;12.40;;;3.90;;
68074;SDS011;54864;52.002;5.468;2023-07-16T03:34:33;11.98;;;4.20;;
68074;SDS011;54864;52.002;5.468;2023-07-16T03:35:33;14.80;;;4.67;;
68074;SDS011;54864;52.002;5.468;2023-07-16T03:36:35;12.60;;;4.20;;
68074;SDS011;54864;52.002;5.468;2023-07-16T03:37:37;12.13;;;4.45;;
68074;SDS011;54864;52.002;5.468;2023-07-16T03:38:38;7.13;;;3.80;;
68074;SDS011;54864;52.002;5.468;2023-07-16T03:39:39;11.43;;;3.90;;
68074;SDS011;54864;52.002;5.468;2023-07-16T03:40:42;13.07;;;3.83;;
68074;SDS011;54864;52.002;5.468;2023-07-16T03:41:44;12.93;;;4.80;;
68074;SDS011;54864;52.002;5.468;2023-07-16T03:42:44;11.45;;;4.70;;
68074;SDS011;54864;52.002;5.468;2023-07-16T03:43:45;8.63;;;3.97;;
68074;SDS011;54864;52.002;5.468;2023-07-16T03:44:47;14.80;;;4.78;;
68074;SDS011;54864;52.002;5.468;2023-07-16T03:45:47;12.10;;;4.38;;
68074;SDS011;54864;52.002;5.468;2023-07-16T03:46:50;15.93;;;4.38;;
68074;SDS011;54864;52.002;5.468;2023-07-16T03:47:51;12.70;;;4.30;;
68074;SDS011;54864;52.002;5.468;2023-07-16T03:48:57;12.95;;;4.22;;
68074;SDS011;54864;52.002;5.468;2023-07-16T03:50:06;12.25;;;4.15;;
68074;SDS011;54864;52.002;5.468;2023-07-16T03:51:11;10.88;;;4.40;;
68074;SDS011;54864;52.002;5.468;2023-07-16T03:52:12;12.73;;;4.03;;
68074;SDS011;54864;52.002;5.468;2023-07-16T03:53:13;12.13;;;3.70;;
68074;SDS011;54864;52.002;5.468;2023-07-16T03:54:14;19.80;;;4.65;;
68074;SDS011;54864;52.002;5.468;2023-07-16T03:55:16;9.90;;;4.15;;
68074;SDS011;54864;52.002;5.468;2023-07-16T03:56:17;14.87;;;4.60;;
68074;SDS011;54864;52.002;5.468;2023-07-16T03:57:18;13.38;;;3.97;;
68074;SDS011;54864;52.002;5.468;2023-07-16T03:58:19;11.07;;;4.07;;
68074;SDS011;54864;52.002;5.468;2023-07-16T03:59:21;14.27;;;4.05;;
68074;SDS011;54864;52.002;5.468;2023-07-16T04:00:25;15.10;;;4.30;;
68074;SDS011;54864;52.002;5.468;2023-07-16T04:01:26;11.82;;;4.47;;
68074;SDS011;54864;52.002;5.468;2023-07-16T04:02:27;11.67;;;4.47;;
68074;SDS011;54864;52.002;5.468;2023-07-16T04:03:29;10.38;;;3.88;;
68074;SDS011;54864;52.002;5.468;2023-07-16T04:04:31;15.88;;;4.93;;
68074;SDS011;54864;52.002;5.468;2023-07-16T04:05:35;13.67;;;4.50;;
68074;SDS011;54864;52.002;5.468;2023-07-16T04:06:36;9.52;;;4.10;;
68074;SDS011;54864;52.002;5.468;2023-07-16T04:07:38;13.45;;;4.60;;
68074;SDS011;54864;52.002;5.468;2023-07-16T04:08:41;10.33;;;4.20;;
68074;SDS011;54864;52.002;5.468;2023-07-16T04:09:43;12.85;;;5.22;;
68074;SDS011;54864;52.002;5.468;2023-07-16T04:10:44;11.38;;;5.10;;
68074;SDS011;54864;52.002;5.468;2023-07-16T04:11:45;16.23;;;4.78;;
68074;SDS011;54864;52.002;5.468;2023-07-16T04:12:46;13.23;;;4.70;;
68074;SDS011;54864;52.002;5.468;2023-07-16T04:13:48;11.48;;;4.47;;
68074;SDS011;54864;52.002;5.468;2023-07-16T04:14:49;16.83;;;5.33;;
68074;SDS011;54864;52.002;5.468;2023-07-16T04:15:50;16.35;;;5.22;;
68074;SDS011;54864;52.002;5.468;2023-07-16T04:16:53;14.37;;;5.30;;
68074;SDS011;54864;52.002;5.468;2023-07-16T04:17:54;12.07;;;5.18;;
68074;SDS011;54864;52.002;5.468;2023-07-16T04:18:55;14.68;;;4.97;;
68074;SDS011;54864;52.002;5.468;2023-07-16T04:19:58;16.35;;;5.13;;
68074;SDS011;54864;52.002;5.468;2023-07-16T04:20:59;16.50;;;5.18;;
68074;SDS011;54864;52.002;5.468;2023-07-16T04:22:04;16.27;;;5.25;;
68074;SDS011;54864;52.002;5.468;2023-07-16T04:23:07;15.57;;;4.75;;
68074;SDS011;54864;52.002;5.468;2023-07-16T04:24:09;13.70;;;5.55;;
68074;SDS011;54864;52.002;5.468;2023-07-16T04:25:10;11.60;;;5.43;;
68074;SDS011;54864;52.002;5.468;2023-07-16T04:26:11;11.93;;;4.80;;
68074;SDS011;54864;52.002;5.468;2023-07-16T04:27:12;11.47;;;4.87;;
68074;SDS011;54864;52.002;5.468;2023-07-16T04:28:14;10.95;;;4.90;;
68074;SDS011;54864;52.002;5.468;2023-07-16T04:29:17;11.07;;;4.35;;
68074;SDS011;54864;52.002;5.468;2023-07-16T04:30:20;14.45;;;5.10;;
68074;SDS011;54864;52.002;5.468;2023-07-16T04:31:21;11.38;;;5.00;;
68074;SDS011;54864;52.002;5.468;2023-07-16T04:32:23;12.77;;;5.07;;
68074;SDS011;54864;52.002;5.468;2023-07-16T04:33:23;9.97;;;4.60;;
68074;SDS011;54864;52.002;5.468;2023-07-16T04:34:24;12.85;;;4.97;;
68074;SDS011;54864;52.002;5.468;2023-07-16T04:35:27;11.27;;;5.10;;
68074;SDS011;54864;52.002;5.468;2023-07-16T04:36:28;9.02;;;4.82;;
68074;SDS011;54864;52.002;5.468;2023-07-16T04:37:33;13.15;;;4.82;;
68074;SDS011;54864;52.002;5.468;2023-07-16T04:38:36;11.65;;;5.03;;
68074;SDS011;54864;52.002;5.468;2023-07-16T04:39:38;15.23;;;5.00;;
68074;SDS011;54864;52.002;5.468;2023-07-16T04:40:38;9.88;;;5.00;;
68074;SDS011;54864;52.002;5.468;2023-07-16T04:41:43;12.00;;;5.15;;
68074;SDS011;54864;52.002;5.468;2023-07-16T04:42:43;14.20;;;4.78;;
68074;SDS011;54864;52.002;5.468;2023-07-16T04:43:45;11.45;;;5.25;;
68074;SDS011;54864;52.002;5.468;2023-07-16T04:44:46;10.03;;;4.60;;
68074;SDS011;54864;52.002;5.468;2023-07-16T04:45:48;11.50;;;5.07;;
68074;SDS011;54864;52.002;5.468;2023-07-16T04:46:48;11.18;;;5.22;;
68074;SDS011;54864;52.002;5.468;2023-07-16T04:47:50;15.15;;;5.13;;
68074;SDS011;54864;52.002;5.468;2023-07-16T04:48:51;14.15;;;4.75;;
68074;SDS011;54864;52.002;5.468;2023-07-16T04:49:53;8.55;;;4.65;;
68074;SDS011;54864;52.002;5.468;2023-07-16T04:50:55;12.57;;;5.30;;
68074;SDS011;54864;52.002;5.468;2023-07-16T04:51:59;12.05;;;5.25;;
68074;SDS011;54864;52.002;5.468;2023-07-16T04:53:00;14.45;;;5.28;;
68074;SDS011;54864;52.002;5.468;2023-07-16T04:54:02;9.70;;;4.90;;
68074;SDS011;54864;52.002;5.468;2023-07-16T04:55:03;11.10;;;4.93;;
68074;SDS011;54864;52.002;5.468;2023-07-16T04:56:10;12.15;;;5.10;;
68074;SDS011;54864;52.002;5.468;2023-07-16T04:57:12;13.18;;;4.55;;
68074;SDS011;54864;52.002;5.468;2023-07-16T04:58:14;14.27;;;5.13;;
68074;SDS011;54864;52.002;5.468;2023-07-16T04:59:15;14.13;;;5.47;;
68074;SDS011;54864;52.002;5.468;2023-07-16T05:00:16;17.05;;;5.70;;
68074;SDS011;54864;52.002;5.468;2023-07-16T05:01:17;14.23;;;6.05;;
68074;SDS011;54864;52.002;5.468;2023-07-16T05:02:20;10.30;;;5.30;;
68074;SDS011;54864;52.002;5.468;2023-07-16T05:03:24;11.05;;;5.65;;
68074;SDS011;54864;52.002;5.468;2023-07-16T05:04:25;12.20;;;5.25;;
68074;SDS011;54864;52.002;5.468;2023-07-16T05:05:26;9.75;;;4.78;;
68074;SDS011;54864;52.002;5.468;2023-07-16T05:06:29;12.68;;;5.50;;
68074;SDS011;54864;52.002;5.468;2023-07-16T05:07:30;14.15;;;5.53;;
68074;SDS011;54864;52.002;5.468;2023-07-16T05:08:32;14.27;;;5.82;;
68074;SDS011;54864;52.002;5.468;2023-07-16T05:09:34;14.75;;;6.03;;
68074;SDS011;54864;52.002;5.468;2023-07-16T05:10:42;11.05;;;4.65;;
68074;SDS011;54864;52.002;5.468;2023-07-16T05:11:43;18.60;;;5.95;;
68074;SDS011;54864;52.002;5.468;2023-07-16T05:12:45;14.60;;;5.97;;
68074;SDS011;54864;52.002;5.468;2023-07-16T05:13:46;13.57;;;5.65;;
68074;SDS011;54864;52.002;5.468;2023-07-16T05:14:48;14.70;;;5.43;;
68074;SDS011;54864;52.002;5.468;2023-07-16T05:15:49;12.20;;;5.85;;
68074;SDS011;54864;52.002;5.468;2023-07-16T05:16:51;13.45;;;5.28;;
68074;SDS011;54864;52.002;5.468;2023-07-16T05:17:54;16.98;;;5.57;;
68074;SDS011;54864;52.002;5.468;2023-07-16T05:18:57;11.82;;;5.45;;
68074;SDS011;54864;52.002;5.468;2023-07-16T05:19:58;11.98;;;5.72;;
68074;SDS011;54864;52.002;5.468;2023-07-16T05:21:03;14.32;;;5.55;;
68074;SDS011;54864;52.002;5.468;2023-07-16T05:22:05;12.07;;;5.50;;
68074;SDS011;54864;52.002;5.468;2023-07-16T05:23:09;13.88;;;5.35;;
68074;SDS011;54864;52.002;5.468;2023-07-16T05:24:10;16.65;;;5.95;;
68074;SDS011;54864;52.002;5.468;2023-07-16T05:25:12;12.75;;;5.40;;
68074;SDS011;54864;52.002;5.468;2023-07-16T05:26:12;10.10;;;5.40;;
68074;SDS011;54864;52.002;5.468;2023-07-16T05:27:14;13.30;;;5.53;;
68074;SDS011;54864;52.002;5.468;2023-07-16T05:28:15;15.82;;;6.53;;
68074;SDS011;54864;52.002;5.468;2023-07-16T05:29:17;11.63;;;5.45;;
68074;SDS011;54864;52.002;5.468;2023-07-16T05:30:18;11.00;;;5.13;;
68074;SDS011;54864;52.002;5.468;2023-07-16T05:31:19;15.80;;;5.93;;
68074;SDS011;54864;52.002;5.468;2023-07-16T05:32:21;13.18;;;5.65;;
68074;SDS011;54864;52.002;5.468;2023-07-16T05:33:22;12.63;;;5.63;;
68074;SDS011;54864;52.002;5.468;2023-07-16T05:34:23;17.33;;;5.95;;
68074;SDS011;54864;52.002;5.468;2023-07-16T05:35:24;12.60;;;5.90;;
68074;SDS011;54864;52.002;5.468;2023-07-16T05:36:26;12.80;;;5.77;;
68074;SDS011;54864;52.002;5.468;2023-07-16T05:37:29;13.73;;;5.97;;
68074;SDS011;54864;52.002;5.468;2023-07-16T05:38:31;13.50;;;6.07;;
68074;SDS011;54864;52.002;5.468;2023-07-16T05:39:32;12.13;;;6.27;;
68074;SDS011;54864;52.002;5.468;2023-07-16T05:40:33;14.30;;;6.03;;
68074;SDS011;54864;52.002;5.468;2023-07-16T05:41:34;18.45;;;6.07;;
68074;SDS011;54864;52.002;5.468;2023-07-16T05:42:36;14.32;;;6.10;;
68074;SDS011;54864;52.002;5.468;2023-07-16T05:43:37;13.00;;;6.32;;
68074;SDS011;54864;52.002;5.468;2023-07-16T05:44:41;11.77;;;5.93;;
68074;SDS011;54864;52.002;5.468;2023-07-16T05:45:48;12.13;;;6.13;;
68074;SDS011;54864;52.002;5.468;2023-07-16T05:46:49;14.02;;;6.60;;
68074;SDS011;54864;52.002;5.468;2023-07-16T05:47:50;14.70;;;6.07;;
68074;SDS011;54864;52.002;5.468;2023-07-16T05:48:52;10.93;;;6.40;;
68074;SDS011;54864;52.002;5.468;2023-07-16T05:49:53;12.80;;;6.25;;
68074;SDS011;54864;52.002;5.468;2023-07-16T05:50:54;13.18;;;6.18;;
68074;SDS011;54864;52.002;5.468;2023-07-16T05:51:58;11.25;;;6.10;;
68074;SDS011;54864;52.002;5.468;2023-07-16T05:53:02;11.98;;;5.82;;
68074;SDS011;54864;52.002;5.468;2023-07-16T05:54:03;11.30;;;5.90;;
68074;SDS011;54864;52.002;5.468;2023-07-16T05:55:05;10.05;;;6.57;;
68074;SDS011;54864;52.002;5.468;2023-07-16T05:56:07;11.80;;;6.35;;
68074;SDS011;54864;52.002;5.468;2023-07-16T05:57:08;10.90;;;6.10;;
68074;SDS011;54864;52.002;5.468;2023-07-16T05:58:09;11.80;;;6.03;;
68074;SDS011;54864;52.002;5.468;2023-07-16T05:59:13;13.73;;;6.25;;
68074;SDS011;54864;52.002;5.468;2023-07-16T06:00:14;15.15;;;7.03;;
68074;SDS011;54864;52.002;5.468;2023-07-16T06:01:16;13.48;;;5.70;;
68074;SDS011;54864;52.002;5.468;2023-07-16T06:02:18;15.18;;;6.60;;
68074;SDS011;54864;52.002;5.468;2023-07-16T06:03:20;12.90;;;5.97;;
68074;SDS011;54864;52.002;5.468;2023-07-16T06:04:21;13.55;;;6.07;;
68074;SDS011;54864;52.002;5.468;2023-07-16T06:05:22;14.13;;;6.40;;
68074;SDS011;54864;52.002;5.468;2023-07-16T06:06:27;13.73;;;6.18;;
68074;SDS011;54864;52.002;5.468;2023-07-16T06:07:32;20.30;;;6.65;;
68074;SDS011;54864;52.002;5.468;2023-07-16T06:08:34;17.45;;;6.53;;
68074;SDS011;54864;52.002;5.468;2023-07-16T06:09:36;15.02;;;6.38;;
68074;SDS011;54864;52.002;5.468;2023-07-16T06:10:37;14.00;;;6.40;;
68074;SDS011;54864;52.002;5.468;2023-07-16T06:11:39;13.68;;;6.40;;
68074;SDS011;54864;52.002;5.468;2023-07-16T06:12:39;12.63;;;6.60;;